sensor_id;sensor_type;location;lat;lon;timestamp;P1;durP1;ratioP1;P2;durP2;ratioP2
53674;SDS011;39574;50.534;8.500;2023-10-08T00:02:31;10.6;;;4.6;;
53674;SDS011;39574;50.534;8.500;2023-10-08T00:07:30;10.6;;;4.4;;
53674;SDS011;39574;50.534;8.500;2023-10-08T00:12:30;11.3;;;4.6;;
53674;SDS011;39574;50.534;8.500;2023-10-08T00:17:29;10.4;;;4.3;;
53674;SDS011;39574;50.534;8.500;2023-10-08T00:22:28;9.7;;;4.2;;
53674;SDS011;39574;50.534;8.500;2023-10-08T00:27:29;9.7;;;4.3;;
53674;SDS011;39574;50.534;8.500;2023-10-08T00:32:27;10.0;;;4.4;;
53674;SDS011;39574;50.534;8.500;2023-10-08T00:37:26;9.7;;;4.5;;
53674;SDS011;39574;50.534;8.500;2023-10-08T00:42:25;9.8;;;4.4;;
53674;SDS011;39574;50.534;8.500;2023-10-08T00:47:25;10.6;;;4.3;;
53674;SDS011;39574;50.534;8.500;2023-10-08T00:52:24;10.5;;;4.2;;
53674;SDS011;39574;50.534;8.500;2023-10-08T00:57:25;9.9;;;4.2;;
53674;SDS011;39574;50.534;8.500;2023-10-08T01:02:24;10.5;;;4.3;;
53674;SDS011;39574;50.534;8.500;2023-10-08T01:07:24;11.5;;;4.5;;
53674;SDS011;39574;50.534;8.500;2023-10-08T01:12:23;11.0;;;4.3;;
53674;SDS011;39574;50.534;8.500;2023-10-08T01:17:21;10.7;;;4.2;;
53674;SDS011;39574;50.534;8.500;2023-10-08T01:22:20;10.1;;;4.2;;
53674;SDS011;39574;50.534;8.500;2023-10-08T01:27:19;10.7;;;4.2;;
53674;SDS011;39574;50.534;8.500;2023-10-08T01:32:18;10.2;;;4.1;;
53674;SDS011;39574;50.534;8.500;2023-10-08T01:37:18;10.1;;;4.3;;
53674;SDS011;39574;50.534;8.500;2023-10-08T01:42:17;10.4;;;4.3;;
53674;SDS011;39574;50.534;8.500;2023-10-08T01:47:16;10.2;;;4.5;;
53674;SDS011;39574;50.534;8.500;2023-10-08T01:52:15;9.8;;;4.6;;
53674;SDS011;39574;50.534;8.500;2023-10-08T01:57:17;9.7;;;4.5;;
53674;SDS011;39574;50.534;8.500;2023-10-08T02:02:14;10.2;;;4.4;;
53674;SDS011;39574;50.534;8.500;2023-10-08T02:07:13;10.2;;;4.4;;
53674;SDS011;39574;50.534;8.500;2023-10-08T02:12:12;10.6;;;4.4;;
53674;SDS011;39574;50.534;8.500;2023-10-08T02:17:12;11.2;;;4.6;;
53674;SDS011;39574;50.534;8.500;2023-10-08T02:22:11;10.4;;;4.5;;
53674;SDS011;39574;50.534;8.500;2023-10-08T02:27:10;10.2;;;4.4;;
53674;SDS011;39574;50.534;8.500;2023-10-08T02:32:09;10.0;;;4.2;;
53674;SDS011;39574;50.534;8.500;2023-10-08T02:37:09;11.0;;;4.4;;
53674;SDS011;39574;50.534;8.500;2023-10-08T02:42:08;12.3;;;5.6;;
53674;SDS011;39574;50.534;8.500;2023-10-08T02:47:07;13.2;;;6.2;;
53674;SDS011;39574;50.534;8.500;2023-10-08T02:52:07;11.4;;;5.6;;
53674;SDS011;39574;50.534;8.500;2023-10-08T02:57:06;11.1;;;5.2;;
53674;SDS011;39574;50.534;8.500;2023-10-08T03:02:08;10.3;;;4.6;;
53674;SDS011;39574;50.534;8.500;2023-10-08T03:07:04;10.6;;;4.4;;
53674;SDS011;39574;50.534;8.500;2023-10-08T03:12:04;10.2;;;4.3;;
53674;SDS011;39574;50.534;8.500;2023-10-08T03:17:03;11.3;;;4.3;;
53674;SDS011;39574;50.534;8.500;2023-10-08T03:22:04;11.3;;;4.5;;
53674;SDS011;39574;50.534;8.500;2023-10-08T03:27:01;10.1;;;4.3;;
53674;SDS011;39574;50.534;8.500;2023-10-08T03:32:01;9.8;;;4.5;;
53674;SDS011;39574;50.534;8.500;2023-10-08T03:37:00;9.2;;;4.4;;
53674;SDS011;39574;50.534;8.500;2023-10-08T03:41:59;10.1;;;4.5;;
53674;SDS011;39574;50.534;8.500;2023-10-08T03:46:58;10.4;;;4.5;;
53674;SDS011;39574;50.534;8.500;2023-10-08T03:51:58;10.6;;;4.5;;
53674;SDS011;39574;50.534;8.500;2023-10-08T03:56:57;11.7;;;4.7;;
53674;SDS011;39574;50.534;8.500;2023-10-08T04:01:56;12.2;;;4.6;;
53674;SDS011;39574;50.534;8.500;2023-10-08T04:06:55;12.4;;;4.7;;
53674;SDS011;39574;50.534;8.500;2023-10-08T04:11:54;11.6;;;4.5;;
53674;SDS011;39574;50.534;8.500;2023-10-08T04:16:54;11.3;;;4.4;;
53674;SDS011;39574;50.534;8.500;2023-10-08T04:21:53;10.8;;;4.3;;
53674;SDS011;39574;50.534;8.500;2023-10-08T04:26:52;10.9;;;4.5;;
53674;SDS011;39574;50.534;8.500;2023-10-08T04:31:53;12.2;;;4.6;;
53674;SDS011;39574;50.534;8.500;2023-10-08T04:36:51;12.7;;;4.8;;
53674;SDS011;39574;50.534;8.500;2023-10-08T04:41:50;12.1;;;4.8;;
53674;SDS011;39574;50.534;8.500;2023-10-08T04:46:49;11.9;;;4.7;;
53674;SDS011;39574;50.534;8.500;2023-10-08T04:51:48;11.8;;;4.6;;
53674;SDS011;39574;50.534;8.500;2023-10-08T04:56:48;11.7;;;4.4;;
53674;SDS011;39574;50.534;8.500;2023-10-08T05:01:47;11.6;;;4.3;;
53674;SDS011;39574;50.534;8.500;2023-10-08T05:06:46;11.1;;;4.2;;
53674;SDS011;39574;50.534;8.500;2023-10-08T05:11:46;10.3;;;4.1;;
53674;SDS011;39574;50.534;8.500;2023-10-08T05:16:45;10.9;;;4.3;;
53674;SDS011;39574;50.534;8.500;2023-10-08T05:21:44;10.8;;;4.3;;
53674;SDS011;39574;50.534;8.500;2023-10-08T05:26:43;10.2;;;4.3;;
53674;SDS011;39574;50.534;8.500;2023-10-08T05:31:43;10.4;;;4.3;;
53674;SDS011;39574;50.534;8.500;2023-10-08T05:36:42;10.0;;;4.3;;
53674;SDS011;39574;50.534;8.500;2023-10-08T05:41:41;11.2;;;4.9;;
53674;SDS011;39574;50.534;8.500;2023-10-08T05:46:40;11.4;;;5.0;;
53674;SDS011;39574;50.534;8.500;2023-10-08T05:51:40;10.9;;;4.9;;
53674;SDS011;39574;50.534;8.500;2023-10-08T05:56:41;10.7;;;4.9;;
53674;SDS011;39574;50.534;8.500;2023-10-08T06:01:38;15.5;;;8.0;;
53674;SDS011;39574;50.534;8.500;2023-10-08T06:06:37;16.4;;;8.3;;
53674;SDS011;39574;50.534;8.500;2023-10-08T06:11:39;15.4;;;7.3;;
53674;SDS011;39574;50.534;8.500;2023-10-08T06:16:36;13.9;;;6.5;;
53674;SDS011;39574;50.534;8.500;2023-10-08T06:26:35;13.7;;;5.5;;
53674;SDS011;39574;50.534;8.500;2023-10-08T06:31:34;12.5;;;5.2;;
53674;SDS011;39574;50.534;8.500;2023-10-08T06:36:33;11.8;;;5.0;;
53674;SDS011;39574;50.534;8.500;2023-10-08T06:41:32;12.3;;;5.1;;
53674;SDS011;39574;50.534;8.500;2023-10-08T06:51:31;11.8;;;5.3;;
53674;SDS011;39574;50.534;8.500;2023-10-08T06:56:30;11.7;;;5.2;;
53674;SDS011;39574;50.534;8.500;2023-10-08T07:01:30;11.5;;;5.4;;
53674;SDS011;39574;50.534;8.500;2023-10-08T07:06:29;11.0;;;5.2;;
53674;SDS011;39574;50.534;8.500;2023-10-08T07:11:29;10.7;;;5.0;;
53674;SDS011;39574;50.534;8.500;2023-10-08T07:16:28;12.7;;;5.6;;
53674;SDS011;39574;50.534;8.500;2023-10-08T07:21:27;13.8;;;5.6;;
53674;SDS011;39574;50.534;8.500;2023-10-08T07:26:27;14.1;;;5.7;;
53674;SDS011;39574;50.534;8.500;2023-10-08T07:31:26;14.4;;;5.8;;
53674;SDS011;39574;50.534;8.500;2023-10-08T07:36:25;13.3;;;5.7;;
53674;SDS011;39574;50.534;8.500;2023-10-08T07:41:25;13.2;;;5.7;;
53674;SDS011;39574;50.534;8.500;2023-10-08T07:46:24;12.9;;;5.7;;
53674;SDS011;39574;50.534;8.500;2023-10-08T07:51:25;12.7;;;5.8;;
53674;SDS011;39574;50.534;8.500;2023-10-08T07:56:23;13.0;;;5.9;;
53674;SDS011;39574;50.534;8.500;2023-10-08T08:01:22;12.7;;;5.8;;
53674;SDS011;39574;50.534;8.500;2023-10-08T08:06:21;13.4;;;6.0;;
53674;SDS011;39574;50.534;8.500;2023-10-08T08:11:24;13.7;;;5.8;;
53674;SDS011;39574;50.534;8.500;2023-10-08T08:16:20;15.0;;;5.9;;
53674;SDS011;39574;50.534;8.500;2023-10-08T08:21:19;16.5;;;5.8;;
53674;SDS011;39574;50.534;8.500;2023-10-08T08:26:24;15.8;;;5.8;;
53674;SDS011;39574;50.534;8.500;2023-10-08T08:31:18;14.5;;;5.9;;
53674;SDS011;39574;50.534;8.500;2023-10-08T08:36:18;12.4;;;5.6;;
53674;SDS011;39574;50.534;8.500;2023-10-08T08:41:18;11.5;;;5.7;;
53674;SDS011;39574;50.534;8.500;2023-10-08T08:46:18;12.8;;;5.7;;
53674;SDS011;39574;50.534;8.500;2023-10-08T08:51:15;12.9;;;5.8;;
53674;SDS011;39574;50.534;8.500;2023-10-08T08:56:15;13.4;;;5.6;;
53674;SDS011;39574;50.534;8.500;2023-10-08T09:01:16;12.9;;;5.3;;
53674;SDS011;39574;50.534;8.500;2023-10-08T09:06:14;12.3;;;5.4;;
53674;SDS011;39574;50.534;8.500;2023-10-08T09:11:15;12.1;;;5.3;;
53674;SDS011;39574;50.534;8.500;2023-10-08T09:16:13;12.2;;;5.2;;
53674;SDS011;39574;50.534;8.500;2023-10-08T09:21:13;13.6;;;5.6;;
53674;SDS011;39574;50.534;8.500;2023-10-08T09:26:11;13.4;;;5.4;;
53674;SDS011;39574;50.534;8.500;2023-10-08T09:31:11;13.0;;;5.5;;
53674;SDS011;39574;50.534;8.500;2023-10-08T09:36:10;13.3;;;5.5;;
53674;SDS011;39574;50.534;8.500;2023-10-08T09:41:09;13.4;;;5.4;;
53674;SDS011;39574;50.534;8.500;2023-10-08T09:46:09;13.4;;;5.2;;
53674;SDS011;39574;50.534;8.500;2023-10-08T09:51:08;12.8;;;5.2;;
53674;SDS011;39574;50.534;8.500;2023-10-08T09:56:11;12.8;;;5.2;;
53674;SDS011;39574;50.534;8.500;2023-10-08T10:01:07;12.7;;;5.4;;
53674;SDS011;39574;50.534;8.500;2023-10-08T10:06:11;13.9;;;5.5;;
53674;SDS011;39574;50.534;8.500;2023-10-08T10:11:05;15.9;;;6.9;;
53674;SDS011;39574;50.534;8.500;2023-10-08T10:16:05;15.1;;;6.6;;
53674;SDS011;39574;50.534;8.500;2023-10-08T10:21:36;15.6;;;6.4;;
53674;SDS011;39574;50.534;8.500;2023-10-08T10:26:04;14.0;;;5.9;;
53674;SDS011;39574;50.534;8.500;2023-10-08T10:31:03;13.8;;;5.8;;
53674;SDS011;39574;50.534;8.500;2023-10-08T10:36:03;13.9;;;5.9;;
53674;SDS011;39574;50.534;8.500;2023-10-08T10:41:03;14.1;;;5.8;;
53674;SDS011;39574;50.534;8.500;2023-10-08T10:46:02;14.9;;;6.0;;
53674;SDS011;39574;50.534;8.500;2023-10-08T10:51:01;15.6;;;6.4;;
53674;SDS011;39574;50.534;8.500;2023-10-08T10:56:05;17.1;;;6.8;;
53674;SDS011;39574;50.534;8.500;2023-10-08T11:01:00;16.1;;;6.4;;
53674;SDS011;39574;50.534;8.500;2023-10-08T11:05:59;14.8;;;6.1;;
53674;SDS011;39574;50.534;8.500;2023-10-08T11:10:59;14.6;;;5.9;;
53674;SDS011;39574;50.534;8.500;2023-10-08T11:16:00;14.6;;;6.0;;
53674;SDS011;39574;50.534;8.500;2023-10-08T11:21:07;13.8;;;5.8;;
53674;SDS011;39574;50.534;8.500;2023-10-08T11:26:00;12.3;;;5.3;;
53674;SDS011;39574;50.534;8.500;2023-10-08T11:30:59;11.6;;;4.8;;
53674;SDS011;39574;50.534;8.500;2023-10-08T11:35:57;10.5;;;4.1;;
53674;SDS011;39574;50.534;8.500;2023-10-08T11:41:08;10.6;;;3.8;;
53674;SDS011;39574;50.534;8.500;2023-10-08T11:45:55;9.7;;;3.5;;
53674;SDS011;39574;50.534;8.500;2023-10-08T11:50:57;9.6;;;3.2;;
53674;SDS011;39574;50.534;8.500;2023-10-08T11:55:54;9.6;;;3.0;;
53674;SDS011;39574;50.534;8.500;2023-10-08T12:00:54;8.4;;;2.9;;
53674;SDS011;39574;50.534;8.500;2023-10-08T12:05:53;8.3;;;2.8;;
53674;SDS011;39574;50.534;8.500;2023-10-08T12:10:52;7.2;;;2.7;;
53674;SDS011;39574;50.534;8.500;2023-10-08T12:15:53;7.1;;;2.5;;
53674;SDS011;39574;50.534;8.500;2023-10-08T12:20:53;7.7;;;2.5;;
53674;SDS011;39574;50.534;8.500;2023-10-08T12:25:52;7.6;;;2.3;;
53674;SDS011;39574;50.534;8.500;2023-10-08T12:30:51;7.7;;;2.2;;
53674;SDS011;39574;50.534;8.500;2023-10-08T12:35:49;7.7;;;2.1;;
53674;SDS011;39574;50.534;8.500;2023-10-08T12:40:48;7.3;;;2.0;;
53674;SDS011;39574;50.534;8.500;2023-10-08T12:50:48;7.6;;;2.1;;
53674;SDS011;39574;50.534;8.500;2023-10-08T12:55:46;8.6;;;2.1;;
53674;SDS011;39574;50.534;8.500;2023-10-08T13:00:47;9.3;;;2.1;;
53674;SDS011;39574;50.534;8.500;2023-10-08T13:05:46;8.3;;;2.1;;
53674;SDS011;39574;50.534;8.500;2023-10-08T13:10:45;9.8;;;2.3;;
53674;SDS011;39574;50.534;8.500;2023-10-08T13:20:43;9.3;;;2.4;;
53674;SDS011;39574;50.534;8.500;2023-10-08T13:25:43;9.6;;;2.5;;
53674;SDS011;39574;50.534;8.500;2023-10-08T13:30:42;10.1;;;2.4;;
53674;SDS011;39574;50.534;8.500;2023-10-08T13:35:42;9.3;;;2.4;;
53674;SDS011;39574;50.534;8.500;2023-10-08T13:40:40;9.0;;;2.4;;
53674;SDS011;39574;50.534;8.500;2023-10-08T13:45:40;8.0;;;2.2;;
53674;SDS011;39574;50.534;8.500;2023-10-08T13:50:39;7.6;;;2.2;;
53674;SDS011;39574;50.534;8.500;2023-10-08T13:55:39;7.0;;;2.1;;
53674;SDS011;39574;50.534;8.500;2023-10-08T14:00:38;7.3;;;1.9;;
53674;SDS011;39574;50.534;8.500;2023-10-08T14:10:37;7.5;;;1.8;;
53674;SDS011;39574;50.534;8.500;2023-10-08T14:15:36;7.3;;;1.8;;
53674;SDS011;39574;50.534;8.500;2023-10-08T14:30:34;6.7;;;1.8;;
53674;SDS011;39574;50.534;8.500;2023-10-08T14:35:33;6.7;;;1.8;;
53674;SDS011;39574;50.534;8.500;2023-10-08T14:40:33;6.5;;;1.8;;
53674;SDS011;39574;50.534;8.500;2023-10-08T14:45:34;6.3;;;1.7;;
53674;SDS011;39574;50.534;8.500;2023-10-08T14:50:32;7.5;;;1.9;;
53674;SDS011;39574;50.534;8.500;2023-10-08T14:55:31;7.8;;;2.0;;
53674;SDS011;39574;50.534;8.500;2023-10-08T15:00:30;7.2;;;2.0;;
53674;SDS011;39574;50.534;8.500;2023-10-08T15:05:30;6.8;;;1.9;;
53674;SDS011;39574;50.534;8.500;2023-10-08T15:10:28;6.3;;;1.9;;
53674;SDS011;39574;50.534;8.500;2023-10-08T15:15:28;6.2;;;2.0;;
53674;SDS011;39574;50.534;8.500;2023-10-08T15:20:27;7.6;;;2.0;;
53674;SDS011;39574;50.534;8.500;2023-10-08T15:25:26;8.3;;;2.0;;
53674;SDS011;39574;50.534;8.500;2023-10-08T15:30:26;8.4;;;2.0;;
53674;SDS011;39574;50.534;8.500;2023-10-08T15:35:25;7.8;;;2.0;;
53674;SDS011;39574;50.534;8.500;2023-10-08T15:40:24;6.6;;;2.1;;
53674;SDS011;39574;50.534;8.500;2023-10-08T15:45:24;6.7;;;2.3;;
53674;SDS011;39574;50.534;8.500;2023-10-08T15:50:24;6.3;;;2.1;;
53674;SDS011;39574;50.534;8.500;2023-10-08T15:55:22;6.5;;;1.9;;
53674;SDS011;39574;50.534;8.500;2023-10-08T16:00:21;6.3;;;1.8;;
53674;SDS011;39574;50.534;8.500;2023-10-08T16:05:21;6.1;;;1.7;;
53674;SDS011;39574;50.534;8.500;2023-10-08T16:10:20;5.8;;;1.6;;
53674;SDS011;39574;50.534;8.500;2023-10-08T16:15:19;6.0;;;1.7;;
53674;SDS011;39574;50.534;8.500;2023-10-08T16:20:21;6.4;;;1.8;;
53674;SDS011;39574;50.534;8.500;2023-10-08T16:25:19;6.4;;;1.9;;
53674;SDS011;39574;50.534;8.500;2023-10-08T16:30:18;5.7;;;1.7;;
53674;SDS011;39574;50.534;8.500;2023-10-08T16:35:17;5.8;;;1.8;;
53674;SDS011;39574;50.534;8.500;2023-10-08T16:40:16;6.4;;;1.8;;
53674;SDS011;39574;50.534;8.500;2023-10-08T16:45:15;6.7;;;1.8;;
53674;SDS011;39574;50.534;8.500;2023-10-08T16:50:15;6.9;;;1.8;;
53674;SDS011;39574;50.534;8.500;2023-10-08T16:55:14;5.7;;;1.6;;
53674;SDS011;39574;50.534;8.500;2023-10-08T17:00:14;5.6;;;1.7;;
53674;SDS011;39574;50.534;8.500;2023-10-08T17:05:13;5.9;;;1.6;;
53674;SDS011;39574;50.534;8.500;2023-10-08T17:10:11;5.4;;;1.5;;
53674;SDS011;39574;50.534;8.500;2023-10-08T17:25:09;6.5;;;1.9;;
53674;SDS011;39574;50.534;8.500;2023-10-08T17:30:09;7.2;;;2.4;;
53674;SDS011;39574;50.534;8.500;2023-10-08T17:35:08;6.5;;;2.2;;
53674;SDS011;39574;50.534;8.500;2023-10-08T17:40:08;6.3;;;2.0;;
53674;SDS011;39574;50.534;8.500;2023-10-08T17:45:07;6.3;;;1.8;;
53674;SDS011;39574;50.534;8.500;2023-10-08T17:50:07;6.1;;;1.7;;
53674;SDS011;39574;50.534;8.500;2023-10-08T17:55:06;7.7;;;1.8;;
53674;SDS011;39574;50.534;8.500;2023-10-08T18:00:05;7.0;;;1.8;;
53674;SDS011;39574;50.534;8.500;2023-10-08T18:05:03;6.5;;;1.7;;
53674;SDS011;39574;50.534;8.500;2023-10-08T18:10:03;5.7;;;1.6;;
53674;SDS011;39574;50.534;8.500;2023-10-08T18:15:02;4.7;;;1.5;;
53674;SDS011;39574;50.534;8.500;2023-10-08T18:20:02;5.8;;;1.7;;
53674;SDS011;39574;50.534;8.500;2023-10-08T18:25:00;6.2;;;1.7;;
53674;SDS011;39574;50.534;8.500;2023-10-08T18:30:00;6.2;;;1.8;;
53674;SDS011;39574;50.534;8.500;2023-10-08T18:34:59;5.9;;;1.9;;
53674;SDS011;39574;50.534;8.500;2023-10-08T18:39:59;5.9;;;2.0;;
53674;SDS011;39574;50.534;8.500;2023-10-08T18:44:58;6.2;;;2.0;;
53674;SDS011;39574;50.534;8.500;2023-10-08T18:49:57;5.8;;;1.8;;
53674;SDS011;39574;50.534;8.500;2023-10-08T18:54:56;6.0;;;1.9;;
53674;SDS011;39574;50.534;8.500;2023-10-08T18:59:55;5.5;;;1.7;;
53674;SDS011;39574;50.534;8.500;2023-10-08T19:04:55;5.3;;;1.7;;
53674;SDS011;39574;50.534;8.500;2023-10-08T19:09:54;5.5;;;1.7;;
53674;SDS011;39574;50.534;8.500;2023-10-08T19:14:53;5.4;;;1.6;;
53674;SDS011;39574;50.534;8.500;2023-10-08T19:19:52;5.2;;;1.5;;
53674;SDS011;39574;50.534;8.500;2023-10-08T19:24:51;5.8;;;1.7;;
53674;SDS011;39574;50.534;8.500;2023-10-08T19:29:51;6.6;;;2.0;;
53674;SDS011;39574;50.534;8.500;2023-10-08T19:34:50;8.5;;;2.7;;
53674;SDS011;39574;50.534;8.500;2023-10-08T19:39:49;8.6;;;2.8;;
53674;SDS011;39574;50.534;8.500;2023-10-08T19:44:48;7.2;;;2.4;;
53674;SDS011;39574;50.534;8.500;2023-10-08T19:49:48;6.4;;;2.2;;
53674;SDS011;39574;50.534;8.500;2023-10-08T19:54:46;7.1;;;2.9;;
53674;SDS011;39574;50.534;8.500;2023-10-08T20:04:45;8.0;;;3.5;;
53674;SDS011;39574;50.534;8.500;2023-10-08T20:09:44;8.5;;;3.5;;
53674;SDS011;39574;50.534;8.500;2023-10-08T20:14:43;8.2;;;3.2;;
53674;SDS011;39574;50.534;8.500;2023-10-08T20:24:42;7.5;;;3.0;;
53674;SDS011;39574;50.534;8.500;2023-10-08T20:29:42;7.2;;;2.7;;
53674;SDS011;39574;50.534;8.500;2023-10-08T20:34:40;7.2;;;2.8;;
53674;SDS011;39574;50.534;8.500;2023-10-08T20:39:39;7.2;;;2.7;;
53674;SDS011;39574;50.534;8.500;2023-10-08T20:44:38;7.2;;;2.7;;
53674;SDS011;39574;50.534;8.500;2023-10-08T20:49:37;7.3;;;2.6;;
53674;SDS011;39574;50.534;8.500;2023-10-08T20:54:38;7.1;;;2.8;;
53674;SDS011;39574;50.534;8.500;2023-10-08T20:59:36;7.5;;;2.7;;
53674;SDS011;39574;50.534;8.500;2023-10-08T21:04:35;6.8;;;2.6;;
53674;SDS011;39574;50.534;8.500;2023-10-08T21:09:34;6.9;;;2.5;;
53674;SDS011;39574;50.534;8.500;2023-10-08T21:14:33;6.7;;;2.4;;
53674;SDS011;39574;50.534;8.500;2023-10-08T21:19:33;6.9;;;2.7;;
53674;SDS011;39574;50.534;8.500;2023-10-08T21:29:31;6.2;;;2.5;;
53674;SDS011;39574;50.534;8.500;2023-10-08T21:34:30;5.6;;;2.3;;
53674;SDS011;39574;50.534;8.500;2023-10-08T21:39:31;6.0;;;2.5;;
53674;SDS011;39574;50.534;8.500;2023-10-08T21:44:28;6.6;;;2.5;;
53674;SDS011;39574;50.534;8.500;2023-10-08T21:49:28;9.1;;;3.6;;
53674;SDS011;39574;50.534;8.500;2023-10-08T21:54:27;8.8;;;3.6;;
53674;SDS011;39574;50.534;8.500;2023-10-08T21:59:25;9.4;;;4.1;;
53674;SDS011;39574;50.534;8.500;2023-10-08T22:04:26;8.5;;;3.8;;
53674;SDS011;39574;50.534;8.500;2023-10-08T22:09:26;6.9;;;3.0;;
53674;SDS011;39574;50.534;8.500;2023-10-08T22:14:23;6.3;;;2.6;;
53674;SDS011;39574;50.534;8.500;2023-10-08T22:19:22;6.3;;;2.3;;
53674;SDS011;39574;50.534;8.500;2023-10-08T22:24:21;5.9;;;2.3;;
53674;SDS011;39574;50.534;8.500;2023-10-08T22:29:22;5.9;;;2.3;;
53674;SDS011;39574;50.534;8.500;2023-10-08T22:34:19;6.9;;;2.5;;
53674;SDS011;39574;50.534;8.500;2023-10-08T22:39:22;6.9;;;2.3;;
53674;SDS011;39574;50.534;8.500;2023-10-08T22:44:18;6.3;;;2.1;;
53674;SDS011;39574;50.534;8.500;2023-10-08T22:49:17;6.6;;;2.2;;
53674;SDS011;39574;50.534;8.500;2023-10-08T22:59:15;6.2;;;2.2;;
53674;SDS011;39574;50.534;8.500;2023-10-08T23:04:14;6.1;;;2.1;;
53674;SDS011;39574;50.534;8.500;2023-10-08T23:09:14;6.4;;;2.2;;
53674;SDS011;39574;50.534;8.500;2023-10-08T23:14:13;6.7;;;2.3;;
53674;SDS011;39574;50.534;8.500;2023-10-08T23:19:12;6.8;;;2.2;;
53674;SDS011;39574;50.534;8.500;2023-10-08T23:24:11;6.3;;;2.1;;
53674;SDS011;39574;50.534;8.500;2023-10-08T23:29:10;6.0;;;2.0;;
53674;SDS011;39574;50.534;8.500;2023-10-08T23:34:10;6.4;;;2.1;;
53674;SDS011;39574;50.534;8.500;2023-10-08T23:39:09;5.9;;;2.1;;
53674;SDS011;39574;50.534;8.500;2023-10-08T23:44:08;6.4;;;2.1;;
53674;SDS011;39574;50.534;8.500;2023-10-08T23:49:07;7.1;;;2.3;;
53674;SDS011;39574;50.534;8.500;2023-10-08T23:54:06;6.8;;;2.4;;
53674;SDS011;39574;50.534;8.500;2023-10-08T23:59:05;7.2;;;2.3;;
